sensor_id;sensor_type;location;lat;lon;timestamp;temperature;humidity
15231;DHT22;32569;51.762;8.564;2023-03-23T00:00:30;12.50;99.90
15231;DHT22;32569;51.762;8.564;2023-03-23T00:02:57;12.60;99.90
15231;DHT22;32569;51.762;8.564;2023-03-23T00:05:24;12.60;99.90
15231;DHT22;32569;51.762;8.564;2023-03-23T00:07:50;12.60;99.90
15231;DHT22;32569;51.762;8.564;2023-03-23T00:10:18;12.70;99.90
15231;DHT22;32569;51.762;8.564;2023-03-23T00:12:45;12.70;99.90
15231;DHT22;32569;51.762;8.564;2023-03-23T00:15:15;12.70;99.90
15231;DHT22;32569;51.762;8.564;2023-03-23T00:17:42;12.60;99.90
15231;DHT22;32569;51.762;8.564;2023-03-23T00:20:10;12.60;99.90
15231;DHT22;32569;51.762;8.564;2023-03-23T00:22:37;12.70;99.90
15231;DHT22;32569;51.762;8.564;2023-03-23T00:25:05;12.70;99.90
15231;DHT22;32569;51.762;8.564;2023-03-23T00:27:37;12.70;99.90
15231;DHT22;32569;51.762;8.564;2023-03-23T00:30:07;12.70;99.90
15231;DHT22;32569;51.762;8.564;2023-03-23T00:32:34;12.70;99.90
15231;DHT22;32569;51.762;8.564;2023-03-23T00:35:00;12.70;99.90
15231;DHT22;32569;51.762;8.564;2023-03-23T00:37:27;12.70;99.90
15231;DHT22;32569;51.762;8.564;2023-03-23T00:39:54;12.70;99.90
15231;DHT22;32569;51.762;8.564;2023-03-23T00:42:22;12.70;99.90
15231;DHT22;32569;51.762;8.564;2023-03-23T00:44:51;12.60;99.90
15231;DHT22;32569;51.762;8.564;2023-03-23T00:47:19;12.60;99.90
15231;DHT22;32569;51.762;8.564;2023-03-23T00:49:46;12.70;99.90
15231;DHT22;32569;51.762;8.564;2023-03-23T00:52:13;12.70;99.90
15231;DHT22;32569;51.762;8.564;2023-03-23T00:54:40;12.70;99.90
15231;DHT22;32569;51.762;8.564;2023-03-23T00:57:07;12.70;99.90
15231;DHT22;32569;51.762;8.564;2023-03-23T00:59:35;12.60;99.90
15231;DHT22;32569;51.762;8.564;2023-03-23T01:02:06;12.60;99.90
15231;DHT22;32569;51.762;8.564;2023-03-23T01:04:32;12.60;99.90
15231;DHT22;32569;51.762;8.564;2023-03-23T01:07:02;12.50;99.90
15231;DHT22;32569;51.762;8.564;2023-03-23T01:09:30;12.60;99.90
15231;DHT22;32569;51.762;8.564;2023-03-23T01:11:56;12.60;99.90
15231;DHT22;32569;51.762;8.564;2023-03-23T01:14:26;12.60;99.90
15231;DHT22;32569;51.762;8.564;2023-03-23T01:16:52;12.70;99.90
15231;DHT22;32569;51.762;8.564;2023-03-23T01:19:21;12.60;99.90
15231;DHT22;32569;51.762;8.564;2023-03-23T01:21:47;12.60;99.90
15231;DHT22;32569;51.762;8.564;2023-03-23T01:24:14;12.40;99.90
15231;DHT22;32569;51.762;8.564;2023-03-23T01:26:40;12.40;99.90
15231;DHT22;32569;51.762;8.564;2023-03-23T01:29:07;12.40;99.90
15231;DHT22;32569;51.762;8.564;2023-03-23T01:31:34;12.40;99.90
15231;DHT22;32569;51.762;8.564;2023-03-23T01:34:02;12.40;99.90
15231;DHT22;32569;51.762;8.564;2023-03-23T01:36:31;12.40;99.90
15231;DHT22;32569;51.762;8.564;2023-03-23T01:38:59;12.40;99.90
15231;DHT22;32569;51.762;8.564;2023-03-23T01:41:28;12.40;99.90
15231;DHT22;32569;51.762;8.564;2023-03-23T01:43:56;12.40;99.90
15231;DHT22;32569;51.762;8.564;2023-03-23T01:46:25;12.30;99.90
15231;DHT22;32569;51.762;8.564;2023-03-23T01:48:53;12.30;99.90
15231;DHT22;32569;51.762;8.564;2023-03-23T01:51:21;12.30;99.90
15231;DHT22;32569;51.762;8.564;2023-03-23T01:53:52;12.30;99.90
15231;DHT22;32569;51.762;8.564;2023-03-23T01:56:23;12.30;99.90
15231;DHT22;32569;51.762;8.564;2023-03-23T01:58:52;12.40;99.90
15231;DHT22;32569;51.762;8.564;2023-03-23T02:01:21;12.50;99.90
15231;DHT22;32569;51.762;8.564;2023-03-23T02:03:52;12.40;99.90
15231;DHT22;32569;51.762;8.564;2023-03-23T02:06:19;12.40;99.90
15231;DHT22;32569;51.762;8.564;2023-03-23T02:08:49;12.40;99.90
15231;DHT22;32569;51.762;8.564;2023-03-23T02:11:18;12.40;99.90
15231;DHT22;32569;51.762;8.564;2023-03-23T02:13:46;12.40;99.90
15231;DHT22;32569;51.762;8.564;2023-03-23T02:16:21;12.40;99.90
15231;DHT22;32569;51.762;8.564;2023-03-23T02:18:55;12.30;99.90
15231;DHT22;32569;51.762;8.564;2023-03-23T02:21:42;12.40;99.90
15231;DHT22;32569;51.762;8.564;2023-03-23T02:24:42;12.30;99.90
15231;DHT22;32569;51.762;8.564;2023-03-23T02:27:17;12.40;99.90
15231;DHT22;32569;51.762;8.564;2023-03-23T02:30:17;12.40;99.90
15231;DHT22;32569;51.762;8.564;2023-03-23T02:33:16;12.20;99.90
15231;DHT22;32569;51.762;8.564;2023-03-23T02:35:49;12.10;99.90
15231;DHT22;32569;51.762;8.564;2023-03-23T02:38:19;12.10;99.90
15231;DHT22;32569;51.762;8.564;2023-03-23T02:40:50;12.10;99.90
15231;DHT22;32569;51.762;8.564;2023-03-23T02:43:20;12.10;99.90
15231;DHT22;32569;51.762;8.564;2023-03-23T02:45:48;12.10;99.90
15231;DHT22;32569;51.762;8.564;2023-03-23T02:48:22;12.10;99.90
15231;DHT22;32569;51.762;8.564;2023-03-23T02:50:51;12.10;99.90
15231;DHT22;32569;51.762;8.564;2023-03-23T02:53:23;12.10;99.90
15231;DHT22;32569;51.762;8.564;2023-03-23T02:55:52;12.10;99.90
15231;DHT22;32569;51.762;8.564;2023-03-23T02:58:21;12.00;99.90
15231;DHT22;32569;51.762;8.564;2023-03-23T03:00:49;12.00;99.90
15231;DHT22;32569;51.762;8.564;2023-03-23T03:03:17;11.90;99.90
15231;DHT22;32569;51.762;8.564;2023-03-23T03:05:55;11.80;99.90
15231;DHT22;32569;51.762;8.564;2023-03-23T03:08:30;11.70;99.90
15231;DHT22;32569;51.762;8.564;2023-03-23T03:11:04;11.70;99.90
15231;DHT22;32569;51.762;8.564;2023-03-23T03:13:37;11.70;99.90
15231;DHT22;32569;51.762;8.564;2023-03-23T03:16:13;11.70;99.90
15231;DHT22;32569;51.762;8.564;2023-03-23T03:18:46;11.70;99.90
15231;DHT22;32569;51.762;8.564;2023-03-23T03:21:18;11.60;99.90
15231;DHT22;32569;51.762;8.564;2023-03-23T03:23:51;11.60;99.90
15231;DHT22;32569;51.762;8.564;2023-03-23T03:26:19;11.60;99.90
15231;DHT22;32569;51.762;8.564;2023-03-23T03:28:47;11.70;99.90
15231;DHT22;32569;51.762;8.564;2023-03-23T03:31:17;11.60;99.90
15231;DHT22;32569;51.762;8.564;2023-03-23T03:33:45;11.60;99.90
15231;DHT22;32569;51.762;8.564;2023-03-23T03:36:16;11.60;99.90
15231;DHT22;32569;51.762;8.564;2023-03-23T03:38:47;11.50;99.90
15231;DHT22;32569;51.762;8.564;2023-03-23T03:41:14;11.50;99.90
15231;DHT22;32569;51.762;8.564;2023-03-23T03:43:40;11.50;99.90
15231;DHT22;32569;51.762;8.564;2023-03-23T03:46:07;11.50;99.90
15231;DHT22;32569;51.762;8.564;2023-03-23T03:48:34;11.50;99.90
15231;DHT22;32569;51.762;8.564;2023-03-23T03:51:01;11.50;99.90
15231;DHT22;32569;51.762;8.564;2023-03-23T03:53:28;11.50;99.90
15231;DHT22;32569;51.762;8.564;2023-03-23T03:55:57;11.60;99.90
15231;DHT22;32569;51.762;8.564;2023-03-23T03:58:25;11.70;99.90
15231;DHT22;32569;51.762;8.564;2023-03-23T04:00:57;11.70;99.90
15231;DHT22;32569;51.762;8.564;2023-03-23T04:03:24;11.60;99.90
15231;DHT22;32569;51.762;8.564;2023-03-23T04:05:51;11.60;99.90
15231;DHT22;32569;51.762;8.564;2023-03-23T04:08:18;11.50;99.90
15231;DHT22;32569;51.762;8.564;2023-03-23T04:10:44;11.60;99.90
15231;DHT22;32569;51.762;8.564;2023-03-23T04:13:12;11.60;99.90
15231;DHT22;32569;51.762;8.564;2023-03-23T04:15:39;11.60;99.90
15231;DHT22;32569;51.762;8.564;2023-03-23T04:18:05;11.60;99.90
15231;DHT22;32569;51.762;8.564;2023-03-23T04:20:32;11.60;99.90
15231;DHT22;32569;51.762;8.564;2023-03-23T04:23:00;11.60;99.90
15231;DHT22;32569;51.762;8.564;2023-03-23T04:25:27;11.60;99.90
15231;DHT22;32569;51.762;8.564;2023-03-23T04:27:58;11.60;99.90
15231;DHT22;32569;51.762;8.564;2023-03-23T04:30:28;11.50;99.90
15231;DHT22;32569;51.762;8.564;2023-03-23T04:32:57;11.60;99.90
15231;DHT22;32569;51.762;8.564;2023-03-23T04:35:26;11.60;99.90
15231;DHT22;32569;51.762;8.564;2023-03-23T04:37:55;11.60;99.90
15231;DHT22;32569;51.762;8.564;2023-03-23T04:40:24;11.60;99.90
15231;DHT22;32569;51.762;8.564;2023-03-23T04:42:51;11.50;99.90
15231;DHT22;32569;51.762;8.564;2023-03-23T04:45:22;11.50;99.90
15231;DHT22;32569;51.762;8.564;2023-03-23T04:47:54;11.50;99.90
15231;DHT22;32569;51.762;8.564;2023-03-23T04:50:24;11.60;99.90
15231;DHT22;32569;51.762;8.564;2023-03-23T04:52:51;11.60;99.90
15231;DHT22;32569;51.762;8.564;2023-03-23T04:55:25;11.60;99.90
15231;DHT22;32569;51.762;8.564;2023-03-23T04:57:52;11.50;99.90
15231;DHT22;32569;51.762;8.564;2023-03-23T05:00:20;11.50;99.90
15231;DHT22;32569;51.762;8.564;2023-03-23T05:02:47;11.60;99.90
15231;DHT22;32569;51.762;8.564;2023-03-23T05:05:21;11.60;99.90
15231;DHT22;32569;51.762;8.564;2023-03-23T05:07:52;11.70;99.90
15231;DHT22;32569;51.762;8.564;2023-03-23T05:10:19;11.60;99.90
15231;DHT22;32569;51.762;8.564;2023-03-23T05:12:46;11.60;99.90
15231;DHT22;32569;51.762;8.564;2023-03-23T05:15:14;11.70;99.90
15231;DHT22;32569;51.762;8.564;2023-03-23T05:17:51;11.60;99.90
15231;DHT22;32569;51.762;8.564;2023-03-23T05:20:19;11.50;99.90
15231;DHT22;32569;51.762;8.564;2023-03-23T05:22:47;11.50;99.90
15231;DHT22;32569;51.762;8.564;2023-03-23T05:25:15;11.50;99.90
15231;DHT22;32569;51.762;8.564;2023-03-23T05:27:44;11.50;99.90
15231;DHT22;32569;51.762;8.564;2023-03-23T05:30:14;11.50;99.90
15231;DHT22;32569;51.762;8.564;2023-03-23T05:32:42;11.50;99.90
15231;DHT22;32569;51.762;8.564;2023-03-23T05:35:11;11.60;99.90
15231;DHT22;32569;51.762;8.564;2023-03-23T05:37:39;11.60;99.90
15231;DHT22;32569;51.762;8.564;2023-03-23T05:40:12;11.60;99.90
15231;DHT22;32569;51.762;8.564;2023-03-23T05:42:47;11.60;99.90
15231;DHT22;32569;51.762;8.564;2023-03-23T05:45:14;11.50;99.90
15231;DHT22;32569;51.762;8.564;2023-03-23T05:47:42;11.50;99.90
15231;DHT22;32569;51.762;8.564;2023-03-23T05:50:09;11.50;99.90
15231;DHT22;32569;51.762;8.564;2023-03-23T05:52:36;11.60;99.90
15231;DHT22;32569;51.762;8.564;2023-03-23T05:55:12;11.70;99.90
15231;DHT22;32569;51.762;8.564;2023-03-23T05:57:39;11.70;99.90
15231;DHT22;32569;51.762;8.564;2023-03-23T06:00:07;11.70;99.90
15231;DHT22;32569;51.762;8.564;2023-03-23T06:02:46;11.60;99.90
15231;DHT22;32569;51.762;8.564;2023-03-23T06:05:14;11.60;99.90
15231;DHT22;32569;51.762;8.564;2023-03-23T06:07:41;11.70;99.90
15231;DHT22;32569;51.762;8.564;2023-03-23T06:10:10;11.70;99.90
15231;DHT22;32569;51.762;8.564;2023-03-23T06:12:37;11.70;99.90
15231;DHT22;32569;51.762;8.564;2023-03-23T06:15:05;11.90;99.90
15231;DHT22;32569;51.762;8.564;2023-03-23T06:17:32;11.90;99.90
15231;DHT22;32569;51.762;8.564;2023-03-23T06:19:59;11.90;99.90
15231;DHT22;32569;51.762;8.564;2023-03-23T06:22:26;11.90;99.90
15231;DHT22;32569;51.762;8.564;2023-03-23T06:24:53;11.90;99.90
15231;DHT22;32569;51.762;8.564;2023-03-23T06:27:23;12.00;99.90
15231;DHT22;32569;51.762;8.564;2023-03-23T06:29:50;11.90;99.90
15231;DHT22;32569;51.762;8.564;2023-03-23T06:32:17;12.00;99.90
15231;DHT22;32569;51.762;8.564;2023-03-23T06:34:43;12.00;99.90
15231;DHT22;32569;51.762;8.564;2023-03-23T06:37:11;11.90;99.90
15231;DHT22;32569;51.762;8.564;2023-03-23T06:39:38;12.00;99.90
15231;DHT22;32569;51.762;8.564;2023-03-23T06:42:09;12.10;99.90
15231;DHT22;32569;51.762;8.564;2023-03-23T06:44:38;12.10;99.90
15231;DHT22;32569;51.762;8.564;2023-03-23T06:47:04;12.10;99.90
15231;DHT22;32569;51.762;8.564;2023-03-23T06:49:33;12.20;99.90
15231;DHT22;32569;51.762;8.564;2023-03-23T06:51:59;12.30;99.90
15231;DHT22;32569;51.762;8.564;2023-03-23T06:54:27;12.30;99.90
15231;DHT22;32569;51.762;8.564;2023-03-23T06:56:54;12.30;99.90
15231;DHT22;32569;51.762;8.564;2023-03-23T06:59:21;12.30;99.90
15231;DHT22;32569;51.762;8.564;2023-03-23T07:01:49;12.30;99.90
15231;DHT22;32569;51.762;8.564;2023-03-23T07:04:15;12.30;99.90
15231;DHT22;32569;51.762;8.564;2023-03-23T07:06:42;12.30;99.90
15231;DHT22;32569;51.762;8.564;2023-03-23T07:09:09;12.40;99.90
15231;DHT22;32569;51.762;8.564;2023-03-23T07:11:36;12.40;99.90
15231;DHT22;32569;51.762;8.564;2023-03-23T07:14:02;12.60;99.90
15231;DHT22;32569;51.762;8.564;2023-03-23T07:16:30;12.60;99.90
15231;DHT22;32569;51.762;8.564;2023-03-23T07:18:58;12.60;99.90
15231;DHT22;32569;51.762;8.564;2023-03-23T07:21:25;12.60;99.90
15231;DHT22;32569;51.762;8.564;2023-03-23T07:23:52;12.60;99.90
15231;DHT22;32569;51.762;8.564;2023-03-23T07:26:19;12.70;99.90
15231;DHT22;32569;51.762;8.564;2023-03-23T07:28:46;12.70;99.90
15231;DHT22;32569;51.762;8.564;2023-03-23T07:31:13;12.70;99.90
15231;DHT22;32569;51.762;8.564;2023-03-23T07:33:40;12.80;99.90
15231;DHT22;32569;51.762;8.564;2023-03-23T07:36:09;12.80;99.90
15231;DHT22;32569;51.762;8.564;2023-03-23T07:38:36;12.80;99.90
15231;DHT22;32569;51.762;8.564;2023-03-23T07:41:03;12.80;99.90
15231;DHT22;32569;51.762;8.564;2023-03-23T07:43:29;12.90;99.90
15231;DHT22;32569;51.762;8.564;2023-03-23T07:45:56;13.00;99.90
15231;DHT22;32569;51.762;8.564;2023-03-23T07:48:23;13.00;99.90
15231;DHT22;32569;51.762;8.564;2023-03-23T07:50:49;13.10;99.90
15231;DHT22;32569;51.762;8.564;2023-03-23T07:53:17;13.20;99.90
15231;DHT22;32569;51.762;8.564;2023-03-23T07:55:44;13.20;99.90
15231;DHT22;32569;51.762;8.564;2023-03-23T07:58:10;13.30;99.90
15231;DHT22;32569;51.762;8.564;2023-03-23T08:00:43;13.20;99.90
15231;DHT22;32569;51.762;8.564;2023-03-23T08:03:10;13.30;99.90
15231;DHT22;32569;51.762;8.564;2023-03-23T08:05:37;13.40;99.90
15231;DHT22;32569;51.762;8.564;2023-03-23T08:08:04;13.40;99.90
15231;DHT22;32569;51.762;8.564;2023-03-23T08:10:33;13.40;99.90
15231;DHT22;32569;51.762;8.564;2023-03-23T08:13:00;13.50;99.90
15231;DHT22;32569;51.762;8.564;2023-03-23T08:15:28;13.60;99.90
15231;DHT22;32569;51.762;8.564;2023-03-23T08:17:54;13.60;99.90
15231;DHT22;32569;51.762;8.564;2023-03-23T08:20:21;13.60;99.90
15231;DHT22;32569;51.762;8.564;2023-03-23T08:22:52;13.60;99.90
15231;DHT22;32569;51.762;8.564;2023-03-23T08:25:19;13.70;99.90
15231;DHT22;32569;51.762;8.564;2023-03-23T08:27:48;13.70;99.90
15231;DHT22;32569;51.762;8.564;2023-03-23T08:30:16;13.80;99.90
15231;DHT22;32569;51.762;8.564;2023-03-23T08:32:45;13.80;99.90
15231;DHT22;32569;51.762;8.564;2023-03-23T08:35:12;13.80;99.90
15231;DHT22;32569;51.762;8.564;2023-03-23T08:37:39;13.80;99.90
15231;DHT22;32569;51.762;8.564;2023-03-23T08:40:08;13.80;99.90
15231;DHT22;32569;51.762;8.564;2023-03-23T08:42:36;13.90;99.90
15231;DHT22;32569;51.762;8.564;2023-03-23T08:45:06;13.90;99.90
15231;DHT22;32569;51.762;8.564;2023-03-23T08:47:33;13.90;99.90
15231;DHT22;32569;51.762;8.564;2023-03-23T08:50:00;13.90;99.90
15231;DHT22;32569;51.762;8.564;2023-03-23T08:52:28;13.90;99.90
15231;DHT22;32569;51.762;8.564;2023-03-23T08:54:55;13.90;99.90
15231;DHT22;32569;51.762;8.564;2023-03-23T08:57:22;13.90;99.90
15231;DHT22;32569;51.762;8.564;2023-03-23T08:59:49;13.90;99.90
15231;DHT22;32569;51.762;8.564;2023-03-23T09:02:18;13.90;99.90
15231;DHT22;32569;51.762;8.564;2023-03-23T09:04:44;14.00;99.90
15231;DHT22;32569;51.762;8.564;2023-03-23T09:07:12;14.00;99.90
15231;DHT22;32569;51.762;8.564;2023-03-23T09:09:40;14.10;99.90
15231;DHT22;32569;51.762;8.564;2023-03-23T09:12:08;14.20;99.90
15231;DHT22;32569;51.762;8.564;2023-03-23T09:14:35;14.20;99.90
15231;DHT22;32569;51.762;8.564;2023-03-23T09:17:03;14.30;99.90
15231;DHT22;32569;51.762;8.564;2023-03-23T09:19:33;14.40;99.90
15231;DHT22;32569;51.762;8.564;2023-03-23T09:22:00;14.40;99.90
15231;DHT22;32569;51.762;8.564;2023-03-23T09:24:27;14.40;99.90
15231;DHT22;32569;51.762;8.564;2023-03-23T09:26:54;14.50;99.90
15231;DHT22;32569;51.762;8.564;2023-03-23T09:29:20;14.50;99.90
15231;DHT22;32569;51.762;8.564;2023-03-23T09:31:47;14.50;99.90
15231;DHT22;32569;51.762;8.564;2023-03-23T09:34:14;14.40;99.90
15231;DHT22;32569;51.762;8.564;2023-03-23T09:36:44;14.40;99.90
15231;DHT22;32569;51.762;8.564;2023-03-23T09:39:11;14.40;99.90
15231;DHT22;32569;51.762;8.564;2023-03-23T09:41:54;14.50;99.90
15231;DHT22;32569;51.762;8.564;2023-03-23T09:44:32;14.40;99.90
15231;DHT22;32569;51.762;8.564;2023-03-23T09:47:04;14.40;99.90
15231;DHT22;32569;51.762;8.564;2023-03-23T09:49:39;14.50;99.90
15231;DHT22;32569;51.762;8.564;2023-03-23T09:52:11;14.40;99.90
15231;DHT22;32569;51.762;8.564;2023-03-23T09:54:42;14.40;99.90
15231;DHT22;32569;51.762;8.564;2023-03-23T09:57:14;14.50;99.90
15231;DHT22;32569;51.762;8.564;2023-03-23T09:59:49;14.50;99.90
15231;DHT22;32569;51.762;8.564;2023-03-23T10:02:21;14.60;99.90
15231;DHT22;32569;51.762;8.564;2023-03-23T10:04:51;14.50;99.90
15231;DHT22;32569;51.762;8.564;2023-03-23T10:07:22;14.50;99.90
15231;DHT22;32569;51.762;8.564;2023-03-23T10:09:54;14.50;99.90
15231;DHT22;32569;51.762;8.564;2023-03-23T10:12:27;14.50;99.90
15231;DHT22;32569;51.762;8.564;2023-03-23T10:15:07;14.50;99.90
15231;DHT22;32569;51.762;8.564;2023-03-23T10:17:42;14.50;99.90
15231;DHT22;32569;51.762;8.564;2023-03-23T10:20:21;14.40;99.90
15231;DHT22;32569;51.762;8.564;2023-03-23T10:22:54;14.40;99.90
15231;DHT22;32569;51.762;8.564;2023-03-23T10:25:24;14.40;99.90
15231;DHT22;32569;51.762;8.564;2023-03-23T10:27:59;14.40;99.90
15231;DHT22;32569;51.762;8.564;2023-03-23T10:30:31;14.50;99.90
15231;DHT22;32569;51.762;8.564;2023-03-23T10:33:03;14.60;99.90
15231;DHT22;32569;51.762;8.564;2023-03-23T10:35:35;14.60;99.90
15231;DHT22;32569;51.762;8.564;2023-03-23T10:38:06;14.80;99.90
15231;DHT22;32569;51.762;8.564;2023-03-23T10:40:45;14.90;99.90
15231;DHT22;32569;51.762;8.564;2023-03-23T10:43:13;15.20;99.90
15231;DHT22;32569;51.762;8.564;2023-03-23T10:45:44;15.30;99.90
15231;DHT22;32569;51.762;8.564;2023-03-23T10:48:17;15.30;99.80
15231;DHT22;32569;51.762;8.564;2023-03-23T10:50:48;15.30;99.70
15231;DHT22;32569;51.762;8.564;2023-03-23T10:53:21;15.30;99.70
15231;DHT22;32569;51.762;8.564;2023-03-23T10:55:48;15.20;99.60
15231;DHT22;32569;51.762;8.564;2023-03-23T10:58:23;15.10;99.90
15231;DHT22;32569;51.762;8.564;2023-03-23T11:00:50;15.00;99.90
15231;DHT22;32569;51.762;8.564;2023-03-23T11:03:24;15.00;99.60
15231;DHT22;32569;51.762;8.564;2023-03-23T11:05:56;14.90;99.90
15231;DHT22;32569;51.762;8.564;2023-03-23T11:08:26;14.90;99.90
15231;DHT22;32569;51.762;8.564;2023-03-23T11:10:56;15.00;99.60
15231;DHT22;32569;51.762;8.564;2023-03-23T11:13:28;15.00;99.40
15231;DHT22;32569;51.762;8.564;2023-03-23T11:15:56;15.00;99.30
15231;DHT22;32569;51.762;8.564;2023-03-23T11:18:25;14.90;99.70
15231;DHT22;32569;51.762;8.564;2023-03-23T11:20:54;14.90;99.50
15231;DHT22;32569;51.762;8.564;2023-03-23T11:23:27;14.70;99.60
15231;DHT22;32569;51.762;8.564;2023-03-23T11:25:57;14.70;99.90
15231;DHT22;32569;51.762;8.564;2023-03-23T11:28:32;14.70;99.50
15231;DHT22;32569;51.762;8.564;2023-03-23T11:31:01;14.70;99.90
15231;DHT22;32569;51.762;8.564;2023-03-23T11:33:30;14.60;99.90
15231;DHT22;32569;51.762;8.564;2023-03-23T11:35:59;14.50;99.90
15231;DHT22;32569;51.762;8.564;2023-03-23T11:38:27;14.40;99.90
15231;DHT22;32569;51.762;8.564;2023-03-23T11:40:56;14.30;99.90
15231;DHT22;32569;51.762;8.564;2023-03-23T11:43:25;14.20;99.90
15231;DHT22;32569;51.762;8.564;2023-03-23T11:46:01;13.90;99.90
15231;DHT22;32569;51.762;8.564;2023-03-23T11:48:34;13.30;99.90
15231;DHT22;32569;51.762;8.564;2023-03-23T11:51:04;12.70;99.90
15231;DHT22;32569;51.762;8.564;2023-03-23T11:53:43;12.30;99.90
15231;DHT22;32569;51.762;8.564;2023-03-23T11:56:17;12.10;99.90
15231;DHT22;32569;51.762;8.564;2023-03-23T11:58:45;12.00;99.90
15231;DHT22;32569;51.762;8.564;2023-03-23T12:01:21;11.80;99.90
15231;DHT22;32569;51.762;8.564;2023-03-23T12:04:19;11.60;99.90
15231;DHT22;32569;51.762;8.564;2023-03-23T12:06:55;11.50;99.90
15231;DHT22;32569;51.762;8.564;2023-03-23T12:09:37;11.70;99.90
15231;DHT22;32569;51.762;8.564;2023-03-23T12:12:12;12.00;99.90
15231;DHT22;32569;51.762;8.564;2023-03-23T12:14:46;12.10;99.90
15231;DHT22;32569;51.762;8.564;2023-03-23T12:17:20;12.10;99.90
15231;DHT22;32569;51.762;8.564;2023-03-23T12:20:02;12.10;99.90
15231;DHT22;32569;51.762;8.564;2023-03-23T12:22:55;12.10;99.90
15231;DHT22;32569;51.762;8.564;2023-03-23T12:25:49;12.20;99.90
15231;DHT22;32569;51.762;8.564;2023-03-23T12:28:24;12.30;99.90
15231;DHT22;32569;51.762;8.564;2023-03-23T12:30:59;12.20;99.90
15231;DHT22;32569;51.762;8.564;2023-03-23T12:33:45;12.30;99.90
15231;DHT22;32569;51.762;8.564;2023-03-23T12:36:28;12.30;99.90
15231;DHT22;32569;51.762;8.564;2023-03-23T12:39:29;12.20;99.90
15231;DHT22;32569;51.762;8.564;2023-03-23T12:42:07;12.30;99.90
15231;DHT22;32569;51.762;8.564;2023-03-23T12:44:43;12.50;99.90
15231;DHT22;32569;51.762;8.564;2023-03-23T12:47:21;12.50;99.90
15231;DHT22;32569;51.762;8.564;2023-03-23T12:49:54;12.50;99.90
15231;DHT22;32569;51.762;8.564;2023-03-23T12:52:25;12.70;99.90
15231;DHT22;32569;51.762;8.564;2023-03-23T12:54:58;12.70;99.90
15231;DHT22;32569;51.762;8.564;2023-03-23T12:57:31;12.80;99.90
15231;DHT22;32569;51.762;8.564;2023-03-23T13:00:05;12.70;99.90
15231;DHT22;32569;51.762;8.564;2023-03-23T13:02:42;12.60;99.90
15231;DHT22;32569;51.762;8.564;2023-03-23T13:05:24;12.60;99.90
15231;DHT22;32569;51.762;8.564;2023-03-23T13:07:56;12.50;99.90
15231;DHT22;32569;51.762;8.564;2023-03-23T13:10:29;12.40;99.90
15231;DHT22;32569;51.762;8.564;2023-03-23T13:12:58;12.30;99.90
15231;DHT22;32569;51.762;8.564;2023-03-23T13:15:34;12.20;99.90
15231;DHT22;32569;51.762;8.564;2023-03-23T13:18:10;12.10;99.90
15231;DHT22;32569;51.762;8.564;2023-03-23T13:20:47;12.10;99.90
15231;DHT22;32569;51.762;8.564;2023-03-23T13:23:17;12.20;99.90
15231;DHT22;32569;51.762;8.564;2023-03-23T13:25:52;12.10;99.90
15231;DHT22;32569;51.762;8.564;2023-03-23T13:28:22;12.20;99.90
15231;DHT22;32569;51.762;8.564;2023-03-23T13:31:00;12.20;99.90
15231;DHT22;32569;51.762;8.564;2023-03-23T13:33:33;12.20;99.90
15231;DHT22;32569;51.762;8.564;2023-03-23T13:36:08;12.30;99.90
15231;DHT22;32569;51.762;8.564;2023-03-23T13:38:35;12.20;99.90
15231;DHT22;32569;51.762;8.564;2023-03-23T13:41:11;12.10;99.90
15231;DHT22;32569;51.762;8.564;2023-03-23T13:43:41;12.30;99.90
15231;DHT22;32569;51.762;8.564;2023-03-23T13:46:13;12.30;99.90
15231;DHT22;32569;51.762;8.564;2023-03-23T13:48:43;12.20;99.90
15231;DHT22;32569;51.762;8.564;2023-03-23T13:51:26;12.10;99.90
15231;DHT22;32569;51.762;8.564;2023-03-23T13:54:06;12.10;99.90
15231;DHT22;32569;51.762;8.564;2023-03-23T13:56:39;12.10;99.90
15231;DHT22;32569;51.762;8.564;2023-03-23T13:59:13;12.10;99.90
15231;DHT22;32569;51.762;8.564;2023-03-23T14:01:41;12.00;99.90
15231;DHT22;32569;51.762;8.564;2023-03-23T14:04:12;12.00;99.90
15231;DHT22;32569;51.762;8.564;2023-03-23T14:06:40;12.10;99.90
15231;DHT22;32569;51.762;8.564;2023-03-23T14:09:12;12.30;99.90
15231;DHT22;32569;51.762;8.564;2023-03-23T14:11:47;12.30;99.90
15231;DHT22;32569;51.762;8.564;2023-03-23T14:14:21;12.30;99.90
15231;DHT22;32569;51.762;8.564;2023-03-23T14:16:50;12.20;99.90
15231;DHT22;32569;51.762;8.564;2023-03-23T14:19:21;12.20;99.90
15231;DHT22;32569;51.762;8.564;2023-03-23T14:21:54;12.20;99.90
15231;DHT22;32569;51.762;8.564;2023-03-23T14:24:23;12.40;99.90
15231;DHT22;32569;51.762;8.564;2023-03-23T14:26:51;12.40;99.90
15231;DHT22;32569;51.762;8.564;2023-03-23T14:29:20;12.50;99.90
15231;DHT22;32569;51.762;8.564;2023-03-23T14:31:53;12.50;99.90
15231;DHT22;32569;51.762;8.564;2023-03-23T14:34:22;12.40;99.90
15231;DHT22;32569;51.762;8.564;2023-03-23T14:36:50;12.40;99.90
15231;DHT22;32569;51.762;8.564;2023-03-23T14:39:21;12.40;99.90
15231;DHT22;32569;51.762;8.564;2023-03-23T14:41:48;12.40;99.90
15231;DHT22;32569;51.762;8.564;2023-03-23T14:44:18;12.50;99.90
15231;DHT22;32569;51.762;8.564;2023-03-23T14:46:49;12.60;99.90
15231;DHT22;32569;51.762;8.564;2023-03-23T14:49:18;12.70;99.90
15231;DHT22;32569;51.762;8.564;2023-03-23T14:51:49;12.80;99.90
15231;DHT22;32569;51.762;8.564;2023-03-23T14:54:21;12.90;99.90
15231;DHT22;32569;51.762;8.564;2023-03-23T14:56:49;12.90;99.90
15231;DHT22;32569;51.762;8.564;2023-03-23T14:59:16;13.00;99.90
15231;DHT22;32569;51.762;8.564;2023-03-23T15:01:43;13.00;99.90
15231;DHT22;32569;51.762;8.564;2023-03-23T15:04:16;13.00;99.90
15231;DHT22;32569;51.762;8.564;2023-03-23T15:06:48;13.00;99.90
15231;DHT22;32569;51.762;8.564;2023-03-23T15:09:18;12.90;99.90
15231;DHT22;32569;51.762;8.564;2023-03-23T15:11:53;12.80;99.90
15231;DHT22;32569;51.762;8.564;2023-03-23T15:14:22;12.80;99.90
15231;DHT22;32569;51.762;8.564;2023-03-23T15:16:51;12.70;99.90
15231;DHT22;32569;51.762;8.564;2023-03-23T15:19:22;12.70;99.90
15231;DHT22;32569;51.762;8.564;2023-03-23T15:21:52;12.60;99.90
15231;DHT22;32569;51.762;8.564;2023-03-23T15:24:24;12.60;99.90
15231;DHT22;32569;51.762;8.564;2023-03-23T15:26:52;12.60;99.90
15231;DHT22;32569;51.762;8.564;2023-03-23T15:29:21;12.70;99.90
15231;DHT22;32569;51.762;8.564;2023-03-23T15:31:51;12.70;99.90
15231;DHT22;32569;51.762;8.564;2023-03-23T15:34:30;12.70;99.90
15231;DHT22;32569;51.762;8.564;2023-03-23T15:36:59;12.80;99.90
15231;DHT22;32569;51.762;8.564;2023-03-23T15:39:27;12.90;99.90
15231;DHT22;32569;51.762;8.564;2023-03-23T15:41:55;12.90;99.90
15231;DHT22;32569;51.762;8.564;2023-03-23T15:44:33;12.90;99.90
15231;DHT22;32569;51.762;8.564;2023-03-23T15:47:17;12.70;99.90
15231;DHT22;32569;51.762;8.564;2023-03-23T15:49:46;12.80;99.90